Terminal Aerodrome Forecast
Issued by NWS St Louis, MO

Home | Current Version | Previous Version | Text Only | Print | Product List | Glossary On
Versions: 1 2 3 4 5 6 7 8 9 10 11 12 13 14 15 16 17 18 19 20 21 22 23 24 25 26 27 28 29 30
000
FTUS43 KLSX 300800 AAA
TAFSTL
TAF AMD
KSTL 300855Z 3009/0112 25004KT P6SM SKC
     FM301500 28011KT P6SM SCT040 SCT100
     FM010200 VRB05KT P6SM SCT080
     FM011000 10006KT 6SM -SHRA OVC040=

USA.gov is the U.S. government's official web portal to all federal, state and local government web resources and services.